createdAt,value
2018-05-03T00:03:24.399Z,99.90
2018-05-03T00:08:27.261Z,99.90
2018-05-03T00:13:30.083Z,99.90
2018-05-03T00:18:32.883Z,99.90
2018-05-03T00:23:35.695Z,99.90
2018-05-03T00:28:39.274Z,99.90
2018-05-03T00:33:42.281Z,99.90
2018-05-03T00:38:45.126Z,99.90
2018-05-03T00:43:48.017Z,99.90
2018-05-03T00:48:50.821Z,99.90
2018-05-03T00:53:55.523Z,99.90
2018-05-03T00:58:58.370Z,99.90
2018-05-03T01:04:02.035Z,99.90
2018-05-03T01:09:04.913Z,99.90
2018-05-03T01:14:07.700Z,99.90
2018-05-03T01:19:11.328Z,99.90
2018-05-03T01:24:14.479Z,99.90
2018-05-03T01:29:17.284Z,99.90
2018-05-03T01:34:20.083Z,99.90
2018-05-03T01:39:22.902Z,99.90
2018-05-03T01:44:25.707Z,99.90
2018-05-03T01:49:28.489Z,99.90
2018-05-03T01:54:31.447Z,99.90
2018-05-03T01:59:34.241Z,99.90
2018-05-03T02:04:37.058Z,99.90
2018-05-03T02:09:39.880Z,99.90
2018-05-03T02:14:42.684Z,99.90
2018-05-03T02:19:45.499Z,99.90
2018-05-03T02:24:48.361Z,99.90
2018-05-03T02:29:51.170Z,99.90
2018-05-03T02:34:53.993Z,99.90
2018-05-03T02:39:56.787Z,99.90
2018-05-03T02:44:59.662Z,99.90
2018-05-03T02:50:02.546Z,99.90
2018-05-03T02:55:05.457Z,99.90
2018-05-03T03:00:25.984Z,99.90
2018-05-03T03:05:46.543Z,99.90
2018-05-03T03:11:06.950Z,99.90
2018-05-03T03:16:28.353Z,99.90
2018-05-03T03:27:31.234Z,99.90
2018-05-03T03:32:46.846Z,99.90
2018-05-03T03:38:17.075Z,99.90
2018-05-03T03:43:40.655Z,99.90
2018-05-03T03:48:43.525Z,99.90
2018-05-03T03:53:46.357Z,99.90
2018-05-03T03:58:49.232Z,99.90
2018-05-03T04:03:52.745Z,99.90
2018-05-03T04:08:56.046Z,99.90
2018-05-03T04:14:00.358Z,99.90
2018-05-03T04:19:19.399Z,99.90
2018-05-03T04:24:34.051Z,99.90
2018-05-03T04:29:38.527Z,99.90
2018-05-03T04:34:41.872Z,99.90
2018-05-03T04:39:44.676Z,99.90
2018-05-03T04:44:47.477Z,99.90
2018-05-03T04:49:51.009Z,99.90
2018-05-03T04:54:54.476Z,99.90
2018-05-03T04:59:57.256Z,99.90
2018-05-03T05:05:00.043Z,99.90
2018-05-03T05:10:04.153Z,99.90
2018-05-03T05:15:07.724Z,99.90
2018-05-03T05:20:11.342Z,99.90
2018-05-03T05:25:14.151Z,99.90
2018-05-03T05:30:18.014Z,99.90
2018-05-03T05:35:27.471Z,99.90
2018-05-03T05:40:31.052Z,99.90
2018-05-03T05:45:35.267Z,99.90
2018-05-03T05:50:39.007Z,99.90
2018-05-03T05:55:43.711Z,99.90
2018-05-03T06:00:46.528Z,99.90
2018-05-03T06:05:50.231Z,99.90
2018-05-03T06:10:54.778Z,99.90
2018-05-03T06:15:58.131Z,99.90
2018-05-03T06:21:02.567Z,99.90
2018-05-03T06:26:06.067Z,99.90
2018-05-03T06:31:10.729Z,99.90
2018-05-03T06:36:14.873Z,99.90
2018-05-03T06:41:17.680Z,99.90
2018-05-03T06:46:20.511Z,99.90
2018-05-03T06:51:24.341Z,99.90
2018-05-03T06:56:32.721Z,99.90
2018-05-03T07:01:37.262Z,99.90
2018-05-03T07:06:40.107Z,99.90
2018-05-03T07:11:43.469Z,99.90
2018-05-03T07:16:46.422Z,99.90
2018-05-03T07:21:50.306Z,99.90
2018-05-03T07:26:55.834Z,99.90
2018-05-03T07:31:59.958Z,99.90
2018-05-03T07:37:03.550Z,99.90
2018-05-03T07:42:07.448Z,99.90
2018-05-03T07:47:10.304Z,99.90
2018-05-03T07:52:13.152Z,99.90
2018-05-03T07:57:15.978Z,99.90
2018-05-03T08:02:18.802Z,99.90
2018-05-03T08:07:21.579Z,99.90
2018-05-03T08:12:24.507Z,99.90
2018-05-03T08:17:28.102Z,99.90
2018-05-03T08:22:30.923Z,99.90
2018-05-03T08:27:35.607Z,99.90
2018-05-03T08:32:38.448Z,99.90
2018-05-03T08:37:41.249Z,99.90
2018-05-03T08:42:44.100Z,99.90
2018-05-03T08:47:46.879Z,99.90
2018-05-03T08:52:50.494Z,99.90
2018-05-03T08:57:55.018Z,99.90
2018-05-03T09:02:58.424Z,99.90
2018-05-03T09:08:01.219Z,99.90
2018-05-03T09:13:04.624Z,99.90
2018-05-03T09:18:07.427Z,99.90
2018-05-03T09:23:10.208Z,99.90
2018-05-03T09:28:13.008Z,99.90
2018-05-03T09:33:15.807Z,99.90
2018-05-03T09:38:18.648Z,99.90
2018-05-03T09:43:21.492Z,99.90
2018-05-03T09:48:24.328Z,99.90
2018-05-03T09:53:27.180Z,99.90
2018-05-03T09:58:29.983Z,99.90
2018-05-03T10:03:32.783Z,99.90
2018-05-03T10:08:35.591Z,99.90
2018-05-03T10:13:38.384Z,99.90
2018-05-03T10:18:41.216Z,99.90
2018-05-03T10:23:44.522Z,99.90
2018-05-03T10:28:47.358Z,99.90
2018-05-03T10:33:50.981Z,98.30
2018-05-03T10:38:54.582Z,97.80
2018-05-03T10:43:57.412Z,97.60
2018-05-03T10:49:01.139Z,97.50
2018-05-03T10:54:04.907Z,97.10
2018-05-03T10:59:07.753Z,97.10
2018-05-03T11:04:11.356Z,93.80
2018-05-03T11:09:14.170Z,93.70
2018-05-03T11:14:17.021Z,93.30
2018-05-03T11:19:19.906Z,92.70
2018-05-03T11:24:22.760Z,92.50
2018-05-03T11:29:26.531Z,89.80
2018-05-03T11:34:29.358Z,89.80
2018-05-03T11:39:35.164Z,88.10
2018-05-03T11:44:39.150Z,84.70
2018-05-03T11:49:49.013Z,88.70
2018-05-03T11:54:52.724Z,87.30
2018-05-03T11:59:55.618Z,85.30
2018-05-03T12:04:58.428Z,83.40
2018-05-03T12:10:02.199Z,81.20
2018-05-03T12:15:06.733Z,78.90
2018-05-03T12:20:09.674Z,78.90
2018-05-03T12:25:12.571Z,79.10
2018-05-03T12:30:15.507Z,78.00
2018-05-03T12:35:18.356Z,79.40
2018-05-03T12:40:21.990Z,76.30
2018-05-03T12:45:25.800Z,78.40
2018-05-03T12:50:29.416Z,77.40
2018-05-03T12:55:33.038Z,74.60
2018-05-03T13:00:36.662Z,76.20
2018-05-03T13:05:39.515Z,76.10
2018-05-03T13:10:42.406Z,77.80
2018-05-03T13:15:45.270Z,77.50
2018-05-03T13:20:50.702Z,76.10
2018-05-03T13:25:53.875Z,75.90
2018-05-03T13:30:57.095Z,75.10
2018-05-03T13:36:00.201Z,73.80
2018-05-03T13:41:03.210Z,72.90
2018-05-03T13:46:06.184Z,73.60
2018-05-03T13:51:09.094Z,71.30
2018-05-03T13:56:12.006Z,70.90
2018-05-03T14:01:14.841Z,69.30
2018-05-03T14:06:18.257Z,70.50
2018-05-03T14:11:21.102Z,71.10
2018-05-03T14:16:23.974Z,70.20
2018-05-03T14:21:27.635Z,69.70
2018-05-03T14:26:30.582Z,69.70
2018-05-03T14:31:33.416Z,71.30
2018-05-03T14:36:36.289Z,72.00
2018-05-03T14:41:39.136Z,71.30
2018-05-03T14:46:41.959Z,71.20
2018-05-03T14:51:44.803Z,70.90
2018-05-03T14:56:48.476Z,72.60
2018-05-03T15:01:51.394Z,71.70
2018-05-03T15:06:54.374Z,70.50
2018-05-03T15:11:58.227Z,72.90
2018-05-03T15:17:01.117Z,72.80
2018-05-03T15:22:04.041Z,73.30
2018-05-03T15:27:07.260Z,73.20
2018-05-03T15:32:11.484Z,71.40
2018-05-03T15:37:15.174Z,71.50
2018-05-03T15:42:18.107Z,72.40
2018-05-03T15:47:21.594Z,71.60
2018-05-03T15:52:24.725Z,70.70
2018-05-03T15:57:27.596Z,69.70
2018-05-03T16:02:30.533Z,70.40
2018-05-03T16:07:33.463Z,71.70
2018-05-03T16:12:37.137Z,72.00
2018-05-03T16:46:11.290Z,68.90
2018-05-03T16:51:21.461Z,69.20
2018-05-03T16:56:30.937Z,70.80
2018-05-03T17:07:09.242Z,70.80
2018-05-03T17:12:12.290Z,69.30
2018-05-03T17:17:28.712Z,68.30
2018-05-03T17:22:34.565Z,71.30
2018-05-03T17:27:38.553Z,71.20
2018-05-03T17:32:59.710Z,71.50
2018-05-03T17:38:16.039Z,72.40
2018-05-03T17:43:22.157Z,73.10
2018-05-03T17:48:29.812Z,74.10
2018-05-03T17:53:34.494Z,74.50
2018-05-03T17:58:38.782Z,75.10
2018-05-03T18:03:42.287Z,75.90
2018-05-03T18:08:45.262Z,76.30
2018-05-03T18:13:48.962Z,77.40
2018-05-03T18:18:51.919Z,77.30
2018-05-03T18:23:54.791Z,78.10
2018-05-03T18:28:58.437Z,78.60
2018-05-03T18:34:01.921Z,78.60
2018-05-03T18:39:05.676Z,79.60
2018-05-03T18:44:08.631Z,79.40
2018-05-03T18:49:11.577Z,79.70
2018-05-03T18:54:15.189Z,81.00
2018-05-03T18:59:18.018Z,80.90
2018-05-03T19:04:20.917Z,81.20
2018-05-03T19:09:25.246Z,82.50
2018-05-03T19:14:28.077Z,82.20
2018-05-03T19:19:31.075Z,82.90
2018-05-03T19:24:33.995Z,83.60
2018-05-03T19:42:30.774Z,83.80
2018-05-03T19:47:35.378Z,85.60
2018-05-03T19:52:42.980Z,84.20
2018-05-03T19:57:47.590Z,84.10
2018-05-03T20:02:51.237Z,83.60
2018-05-03T20:07:56.256Z,83.50
2018-05-03T20:12:59.113Z,83.80
2018-05-03T20:18:01.960Z,83.70
2018-05-03T20:23:05.687Z,82.60
2018-05-03T20:28:08.688Z,82.40
2018-05-03T20:33:11.538Z,82.40
2018-05-03T20:38:14.391Z,82.20
2018-05-03T20:43:18.921Z,82.10
2018-05-03T20:48:22.596Z,81.60
2018-05-03T20:53:27.274Z,81.50
2018-05-03T20:58:31.546Z,82.10
2018-05-03T21:03:37.612Z,81.20
2018-05-03T21:08:42.327Z,81.70
2018-05-03T21:13:45.204Z,82.40
2018-05-03T21:18:49.140Z,81.80
2018-05-03T21:23:51.976Z,81.50
2018-05-03T21:28:56.150Z,81.10
2018-05-03T21:33:59.561Z,81.20
2018-05-03T21:39:03.274Z,81.20
2018-05-03T21:44:06.930Z,81.60
2018-05-03T21:49:10.347Z,81.70
2018-05-03T21:54:13.196Z,82.40
2018-05-03T21:59:16.039Z,82.70
2018-05-03T22:04:18.952Z,82.60
2018-05-03T22:09:22.133Z,83.60
2018-05-03T22:14:25.770Z,85.10
2018-05-03T22:19:28.537Z,85.00
2018-05-03T22:24:31.443Z,86.20
2018-05-03T22:29:34.403Z,87.10
2018-05-03T22:34:37.224Z,86.60
2018-05-03T22:39:42.859Z,87.80
2018-05-03T22:44:45.688Z,87.70
2018-05-03T22:49:49.142Z,88.30
2018-05-03T22:54:52.070Z,88.30
2018-05-03T22:59:54.892Z,88.70
2018-05-03T23:04:57.727Z,89.40
2018-05-03T23:10:01.137Z,89.70
2018-05-03T23:15:04.050Z,90.10
2018-05-03T23:20:06.883Z,90.20
2018-05-03T23:25:09.715Z,90.20
2018-05-03T23:30:13.319Z,90.20
2018-05-03T23:35:16.914Z,90.50
2018-05-03T23:40:19.762Z,90.50
2018-05-03T23:45:22.658Z,90.50
2018-05-03T23:50:25.825Z,90.80
2018-05-03T23:55:28.764Z,90.90
